Time;durP1;ratioP1;P1;durP2;ratioP2;P2;SDS_P1;SDS_P2;PMS_P1;PMS_P2;Temp;Humidity;BMP_temperature;BMP_pressure;BME280_temperature;BME280_humidity;BME280_pressure;Samples;Min_cycle;Max_cycle;Signal;HPM_P1;HPM_P2
2023/02/13 00:01:06;;;;;;;15.15;13.77;;;4.70;1.00;;;;;;5001694;28;20202;-77
2023/02/13 00:03:34;;;;;;;15.80;14.18;;;4.70;1.00;;;;;;5001840;28;20230;-80
2023/02/13 00:06:02;;;;;;;15.50;14.00;;;4.70;1.00;;;;;;5002790;28;20197;-78
2023/02/13 00:08:32;;;;;;;16.00;14.63;;;4.70;1.00;;;;;;5000529;28;20209;-78
2023/02/13 00:11:00;;;;;;;15.52;13.93;;;4.50;1.00;;;;;;4999042;28;20870;-78
2023/02/13 00:13:28;;;;;;;15.27;13.68;;;4.60;1.00;;;;;;4999888;28;20324;-77
2023/02/13 00:15:57;;;;;;;15.35;13.88;;;4.60;1.00;;;;;;4999406;28;20193;-77
2023/02/13 00:18:26;;;;;;;15.80;14.25;;;4.50;1.00;;;;;;4996572;28;20540;-77
2023/02/13 00:20:58;;;;;;;15.70;14.27;;;4.50;1.00;;;;;;4997436;28;20217;-78
2023/02/13 00:23:26;;;;;;;16.35;14.95;;;4.60;1.00;;;;;;5004526;28;20218;-79
2023/02/13 00:25:56;;;;;;;18.55;13.18;;;4.50;1.00;;;;;;4993854;28;20857;-77
2023/02/13 00:28:25;;;;;;;14.15;12.95;;;4.40;1.00;;;;;;4997258;28;20257;-79
2023/02/13 00:30:53;;;;;;;16.50;14.30;;;4.40;1.00;;;;;;5004903;28;20198;-76
2023/02/13 00:33:21;;;;;;;21.63;16.40;;;4.20;1.00;;;;;;5001583;28;20695;-77
2023/02/13 00:35:49;;;;;;;15.80;14.20;;;4.20;1.00;;;;;;5004352;28;20205;-78
2023/02/13 00:38:18;;;;;;;16.17;14.55;;;4.20;1.00;;;;;;5002716;28;20245;-77
2023/02/13 00:40:46;;;;;;;16.85;15.10;;;4.30;1.00;;;;;;5004778;28;20225;-77
2023/02/13 00:43:15;;;;;;;16.05;14.45;;;4.30;1.00;;;;;;5005884;28;20229;-76
2023/02/13 00:45:43;;;;;;;14.60;13.40;;;4.30;1.00;;;;;;5005859;28;20201;-79
2023/02/13 00:48:11;;;;;;;15.85;14.25;;;4.20;1.00;;;;;;5008496;28;20275;-79
2023/02/13 00:50:39;;;;;;;14.32;12.85;;;4.30;1.00;;;;;;5000291;28;20210;-79
2023/02/13 00:53:07;;;;;;;15.30;13.90;;;4.30;1.00;;;;;;5002179;28;20230;-78
2023/02/13 00:55:35;;;;;;;15.77;14.20;;;4.20;1.00;;;;;;5007532;28;20211;-79
2023/02/13 00:58:03;;;;;;;17.17;14.43;;;4.10;1.00;;;;;;5000470;28;20260;-78
2023/02/13 01:00:33;;;;;;;14.60;13.20;;;4.10;1.00;;;;;;5003355;28;20763;-79
2023/02/13 01:03:01;;;;;;;18.23;14.77;;;4.10;27.20;;;;;;5004836;28;20231;-77
2023/02/13 01:05:30;;;;;;;16.08;14.00;;;4.00;99.90;;;;;;5007715;28;20209;-77
2023/02/13 01:07:58;;;;;;;16.05;14.60;;;4.10;99.90;;;;;;5005168;28;20281;-76
2023/02/13 01:10:27;;;;;;;15.65;14.13;;;4.10;67.20;;;;;;5007774;28;20197;-77
2023/02/13 01:12:55;;;;;;;14.80;13.45;;;4.10;99.90;;;;;;5005123;28;20218;-76
2023/02/13 01:15:23;;;;;;;14.15;12.93;;;4.20;15.30;;;;;;5002745;28;20206;-76
2023/02/13 01:17:56;;;;;;;16.70;13.40;;;4.30;1.00;;;;;;5005074;28;20251;-74
2023/02/13 01:20:25;;;;;;;15.43;13.82;;;4.20;1.00;;;;;;5003255;28;20204;-77
2023/02/13 01:22:53;;;;;;;15.50;13.85;;;4.10;1.00;;;;;;5003335;28;20213;-77
2023/02/13 01:25:22;;;;;;;15.88;14.38;;;4.00;65.20;;;;;;4997359;28;20288;-75
2023/02/13 01:27:50;;;;;;;16.35;14.18;;;4.00;83.60;;;;;;5003909;28;20206;-77
2023/02/13 01:30:19;;;;;;;15.70;14.10;;;4.10;1.00;;;;;;5001246;28;20204;-76
2023/02/13 01:32:47;;;;;;;15.80;14.40;;;4.10;1.00;;;;;;5004433;28;20231;-77
2023/02/13 01:35:17;;;;;;;15.85;14.20;;;4.20;1.00;;;;;;5000959;28;20319;-80
2023/02/13 01:37:45;;;;;;;15.30;13.90;;;4.10;16.10;;;;;;5003239;28;20202;-76
2023/02/13 01:40:16;;;;;;;15.55;13.93;;;4.00;1.00;;;;;;5000215;28;20205;-76
2023/02/13 01:42:44;;;;;;;16.13;14.48;;;4.10;6.50;;;;;;4998138;28;20234;-78
2023/02/13 01:45:24;;;;;;;15.90;14.40;;;4.10;1.00;;;;;;5002221;28;20250;-81
2023/02/13 01:47:56;;;;;;;15.20;13.88;;;4.10;1.00;;;;;;5008464;28;20192;-78
2023/02/13 01:50:32;;;;;;;16.48;14.75;;;4.10;1.00;;;;;;5004838;28;20199;-77
2023/02/13 01:53:06;;;;;;;15.30;13.70;;;4.00;1.00;;;;;;5001792;28;20739;-81
2023/02/13 01:55:35;;;;;;;15.70;14.13;;;3.90;1.00;;;;;;5003854;28;20254;-79
2023/02/13 01:58:09;;;;;;;15.05;13.30;;;3.90;1.00;;;;;;5002398;28;20210;-78
2023/02/13 02:00:38;;;;;;;16.95;15.18;;;3.80;1.00;;;;;;5002518;28;20212;-80
2023/02/13 02:03:12;;;;;;;17.30;14.20;;;3.80;9.60;;;;;;5008309;28;20595;-78
2023/02/13 02:05:42;;;;;;;14.25;12.95;;;3.80;1.00;;;;;;5008124;28;20223;-78
2023/02/13 02:08:13;;;;;;;16.77;14.80;;;3.90;1.00;;;;;;5002352;28;20200;-79
2023/02/13 02:10:41;;;;;;;15.02;13.48;;;4.00;1.00;;;;;;5002812;28;20292;-78
2023/02/13 02:13:12;;;;;;;16.52;14.70;;;3.90;1.00;;;;;;5002648;28;20222;-77
2023/02/13 02:15:42;;;;;;;17.42;14.88;;;3.70;1.00;;;;;;5003999;28;20217;-77
2023/02/13 02:18:15;;;;;;;17.55;13.93;;;3.60;1.00;;;;;;5005730;28;20420;-80
2023/02/13 02:21:24;;;;;;;16.17;14.48;;;3.80;1.00;;;;;;4998359;28;20236;-77
2023/02/13 02:24:33;;;;;;;16.75;14.65;;;3.70;1.00;;;;;;4997269;28;20221;-78
2023/02/13 02:27:23;;;;;;;16.58;13.55;;;3.70;99.90;;;;;;5004574;28;20642;-81
2023/02/13 02:30:28;;;;;;;20.58;14.48;;;3.80;1.00;;;;;;5005100;28;20267;-77
2023/02/13 02:33:07;;;;;;;14.70;13.23;;;3.80;1.00;;;;;;4999771;28;20220;-78
2023/02/13 02:35:46;;;;;;;14.50;13.05;;;3.90;1.00;;;;;;5004413;28;20607;-79
2023/02/13 02:38:27;;;;;;;16.27;14.52;;;3.90;1.00;;;;;;5002742;28;20204;-78
2023/02/13 02:41:05;;;;;;;17.13;14.65;;;3.80;1.00;;;;;;5017126;28;20194;-78
2023/02/13 02:43:47;;;;;;;15.85;14.15;;;3.70;1.00;;;;;;5001054;28;20581;-78
2023/02/13 02:46:20;;;;;;;15.95;14.35;;;3.80;1.00;;;;;;5003068;28;20200;-78
2023/02/13 02:51:51;;;;;;;18.00;14.07;;;3.70;1.00;;;;;;4997414;28;20275;-78
2023/02/13 02:57:15;;;;;;;16.48;14.45;;;3.50;58.30;;;;;;4997146;28;20678;-77
2023/02/13 03:08:10;;;;;;;16.00;14.30;;;3.60;96.80;;;;;;5007403;28;20217;-77
2023/02/13 03:13:38;;;;;;;16.38;14.85;;;3.70;1.00;;;;;;4997123;28;20219;-78
2023/02/13 03:24:45;;;;;;;15.30;13.30;;;3.60;1.00;;;;;;5002045;28;20197;-77
2023/02/13 03:30:19;;;;;;;15.20;13.65;;;3.60;1.00;;;;;;4999311;28;20230;-79
2023/02/13 03:33:00;;;;;;;15.10;13.60;;;3.60;1.00;;;;;;4996963;28;20224;-78
2023/02/13 03:38:29;;;;;;;15.57;13.98;;;3.50;1.00;;;;;;4996453;28;20302;-78
2023/02/13 03:41:18;;;;;;;14.32;13.02;;;3.50;1.00;;;;;;4998088;28;20223;-77
2023/02/13 03:43:55;;;;;;;15.82;13.70;;;3.50;1.00;;;;;;4997640;28;20303;-77
2023/02/13 03:46:26;;;;;;;14.20;12.75;;;3.40;1.00;;;;;;4999944;28;20213;-77
2023/02/13 03:51:45;;;;;;;15.15;13.35;;;3.40;1.00;;;;;;5000930;28;20202;-79
2023/02/13 03:54:21;;;;;;;16.58;14.88;;;3.40;1.00;;;;;;4998782;28;20209;-76
2023/02/13 03:59:37;;;;;;;17.75;14.73;;;3.40;1.00;;;;;;5003302;28;20206;-78
2023/02/13 04:02:12;;;;;;;16.75;13.95;;;3.40;1.00;;;;;;4998569;28;20345;-78
2023/02/13 04:04:48;;;;;;;16.73;14.50;;;3.50;1.00;;;;;;5004896;28;20200;-77
2023/02/13 04:07:29;;;;;;;16.40;13.95;;;3.50;1.00;;;;;;5024673;28;20209;-77
2023/02/13 04:10:03;;;;;;;16.00;14.45;;;3.60;1.00;;;;;;5002902;28;20205;-77
2023/02/13 04:12:40;;;;;;;19.42;15.52;;;3.50;1.00;;;;;;5004709;28;20232;-78
2023/02/13 04:15:14;;;;;;;22.40;17.00;;;3.40;1.00;;;;;;5001268;28;20204;-79
2023/02/13 04:17:47;;;;;;;19.45;15.60;;;3.30;27.50;;;;;;5003600;28;20202;-78
2023/02/13 04:20:15;;;;;;;20.23;15.82;;;3.30;48.60;;;;;;5002556;28;20686;-79
2023/02/13 04:22:44;;;;;;;18.08;15.75;;;3.20;99.90;;;;;;5002302;28;20221;-76
2023/02/13 04:25:16;;;;;;;19.52;15.68;;;3.30;16.20;;;;;;5003109;28;20200;-79
2023/02/13 04:27:44;;;;;;;23.00;16.95;;;3.30;1.00;;;;;;5006441;28;20203;-77
2023/02/13 04:30:14;;;;;;;18.48;15.45;;;3.40;1.00;;;;;;5007167;28;20221;-77
2023/02/13 04:32:42;;;;;;;22.45;16.48;;;3.30;1.00;;;;;;4997594;28;20229;-76
2023/02/13 04:35:12;;;;;;;18.10;15.30;;;3.10;3.70;;;;;;5000840;28;20669;-78
2023/02/13 04:37:40;;;;;;;22.98;16.17;;;3.20;1.00;;;;;;5001341;28;20286;-78
2023/02/13 04:40:10;;;;;;;21.95;16.55;;;3.30;1.00;;;;;;5002619;28;20205;-77
2023/02/13 04:42:42;;;;;;;18.83;15.07;;;3.10;1.00;;;;;;5002335;28;20275;-77
2023/02/13 04:45:10;;;;;;;19.92;15.95;;;3.20;1.00;;;;;;5002853;28;20194;-79
2023/02/13 04:47:38;;;;;;;19.90;14.75;;;3.30;1.00;;;;;;4997690;28;20253;-77
2023/02/13 04:50:08;;;;;;;21.42;15.45;;;3.20;1.00;;;;;;5002598;28;20356;-78
2023/02/13 04:52:36;;;;;;;20.20;16.52;;;3.30;1.00;;;;;;5004607;28;20247;-77
2023/02/13 04:55:04;;;;;;;22.85;16.55;;;3.20;1.00;;;;;;5005284;28;20204;-76
2023/02/13 04:57:32;;;;;;;21.88;16.38;;;3.20;1.00;;;;;;5002546;28;20255;-76
2023/02/13 05:00:02;;;;;;;20.95;16.40;;;3.10;1.00;;;;;;5003873;28;20829;-76
2023/02/13 05:02:31;;;;;;;23.88;17.48;;;3.20;1.00;;;;;;5002794;28;20388;-77
2023/02/13 05:04:59;;;;;;;21.52;15.35;;;3.10;1.00;;;;;;5003391;28;20896;-77
2023/02/13 05:07:28;;;;;;;23.40;15.85;;;3.20;1.00;;;;;;5003049;28;20205;-76
2023/02/13 05:09:56;;;;;;;19.35;15.55;;;3.20;1.00;;;;;;5005091;28;20211;-77
2023/02/13 05:12:24;;;;;;;24.30;18.20;;;3.10;1.00;;;;;;5004809;28;20246;-78
2023/02/13 05:14:52;;;;;;;24.90;18.42;;;3.10;1.00;;;;;;4999239;28;20209;-76
2023/02/13 05:17:22;;;;;;;19.80;16.73;;;3.10;1.00;;;;;;5003120;28;20203;-77
2023/02/13 05:19:50;;;;;;;19.50;16.70;;;3.00;1.00;;;;;;5003453;28;20196;-76
2023/02/13 05:25:03;;;;;;;21.00;17.30;;;3.10;1.00;;;;;;5001575;28;20214;-76
2023/02/13 05:27:31;;;;;;;20.35;17.45;;;3.10;1.00;;;;;;5003363;28;20291;-76
2023/02/13 05:29:59;;;;;;;18.45;16.17;;;3.10;1.00;;;;;;5001107;28;20225;-76
2023/02/13 05:32:28;;;;;;;22.05;16.83;;;3.00;1.00;;;;;;4997903;28;20230;-78
2023/02/13 05:34:56;;;;;;;17.85;14.90;;;3.00;1.00;;;;;;5004339;28;20198;-78
2023/02/13 05:37:24;;;;;;;18.67;16.00;;;3.10;1.00;;;;;;5005231;28;20263;-81
2023/02/13 05:39:52;;;;;;;18.85;16.23;;;3.20;1.00;;;;;;4999246;28;20758;-76
2023/02/13 05:42:21;;;;;;;20.35;15.55;;;3.10;1.00;;;;;;4993035;28;20237;-76
2023/02/13 05:44:49;;;;;;;18.50;15.10;;;3.10;1.00;;;;;;4996572;28;20224;-77
2023/02/13 05:47:17;;;;;;;19.05;15.25;;;3.00;1.00;;;;;;4994169;28;20204;-77
2023/02/13 05:49:46;;;;;;;19.67;15.35;;;3.00;1.00;;;;;;4993804;28;20205;-78
2023/02/13 05:52:14;;;;;;;21.23;16.42;;;3.10;1.00;;;;;;4994371;28;20228;-75
2023/02/13 05:54:42;;;;;;;20.27;15.63;;;3.10;1.00;;;;;;4993611;28;20240;-77
2023/02/13 05:57:10;;;;;;;17.88;14.48;;;3.10;1.00;;;;;;4999050;28;20193;-76
2023/02/13 05:59:38;;;;;;;22.63;16.08;;;3.10;1.00;;;;;;4993734;28;20208;-76
2023/02/13 06:02:07;;;;;;;18.65;15.57;;;3.20;1.00;;;;;;4994248;28;20209;-75
2023/02/13 06:04:35;;;;;;;20.20;14.98;;;3.20;1.00;;;;;;4993887;28;20264;-76
2023/02/13 06:07:04;;;;;;;20.98;14.82;;;3.20;1.00;;;;;;4994035;28;20267;-76
2023/02/13 06:09:32;;;;;;;23.20;14.98;;;3.20;1.00;;;;;;4996671;28;20622;-76
2023/02/13 06:12:00;;;;;;;19.73;15.77;;;3.20;1.00;;;;;;4993861;28;20214;-77
2023/02/13 06:14:28;;;;;;;18.30;15.32;;;3.10;1.00;;;;;;4998351;28;20210;-76
2023/02/13 06:16:56;;;;;;;18.02;15.73;;;3.00;1.00;;;;;;4991272;28;20232;-78
2023/02/13 06:19:24;;;;;;;21.63;16.13;;;2.90;1.00;;;;;;4995171;28;20203;-76
2023/02/13 06:21:53;;;;;;;17.85;14.55;;;3.00;1.00;;;;;;4995045;28;20197;-75
2023/02/13 06:24:22;;;;;;;21.65;15.55;;;3.00;1.00;;;;;;4992863;28;20206;-77
2023/02/13 06:26:51;;;;;;;21.55;15.85;;;3.00;1.00;;;;;;4997187;28;20205;-75
2023/02/13 06:29:19;;;;;;;18.63;16.17;;;2.90;1.00;;;;;;5000808;28;20200;-76
2023/02/13 06:31:47;;;;;;;20.92;17.05;;;2.90;1.00;;;;;;4995641;28;20282;-76
2023/02/13 06:34:15;;;;;;;21.63;15.65;;;3.00;1.00;;;;;;4995647;28;20671;-76
2023/02/13 06:36:43;;;;;;;21.70;15.43;;;3.00;1.00;;;;;;4996202;28;20208;-77
2023/02/13 06:39:11;;;;;;;18.58;15.25;;;3.10;1.00;;;;;;4996922;28;20763;-77
2023/02/13 06:41:41;;;;;;;26.33;17.02;;;3.20;1.00;;;;;;4993404;28;20191;-77
2023/02/13 06:44:09;;;;;;;20.15;14.68;;;3.10;1.00;;;;;;4993152;28;20210;-76
2023/02/13 06:46:38;;;;;;;18.90;14.95;;;3.10;1.00;;;;;;4993158;28;20212;-78
2023/02/13 06:49:06;;;;;;;20.17;15.52;;;3.10;1.00;;;;;;4997458;28;20213;-77
2023/02/13 06:51:34;;;;;;;24.98;17.75;;;3.10;1.00;;;;;;4990739;28;20225;-77
2023/02/13 06:54:02;;;;;;;22.38;16.70;;;3.00;1.00;;;;;;4995909;28;20720;-78
2023/02/13 06:56:31;;;;;;;22.83;19.40;;;3.10;1.00;;;;;;4998349;28;20205;-77
2023/02/13 06:59:01;;;;;;;20.83;16.98;;;3.20;1.00;;;;;;4995151;28;20617;-75
2023/02/13 07:01:29;;;;;;;21.20;16.42;;;3.20;1.00;;;;;;4995713;28;20198;-75
2023/02/13 07:03:58;;;;;;;20.05;16.55;;;3.20;1.00;;;;;;4996796;28;20214;-78
2023/02/13 07:06:26;;;;;;;20.33;15.52;;;3.20;1.00;;;;;;5000497;28;20352;-77
2023/02/13 07:08:55;;;;;;;20.95;17.35;;;3.20;1.00;;;;;;4999181;28;20259;-75
2023/02/13 07:11:24;;;;;;;22.10;15.82;;;3.20;1.00;;;;;;5000515;28;20701;-77
2023/02/13 07:13:53;;;;;;;22.95;17.70;;;3.10;1.00;;;;;;4999572;28;20221;-75
2023/02/13 07:16:23;;;;;;;20.55;18.10;;;3.10;1.00;;;;;;4994409;28;20198;-76
2023/02/13 07:18:51;;;;;;;24.13;17.85;;;3.10;1.00;;;;;;4998649;28;20624;-76
2023/02/13 07:21:19;;;;;;;24.33;19.08;;;3.10;1.00;;;;;;4997381;28;20193;-77
2023/02/13 07:23:47;;;;;;;22.92;18.33;;;3.20;1.00;;;;;;4998679;28;20801;-76
2023/02/13 07:26:16;;;;;;;23.55;18.98;;;3.30;1.00;;;;;;4998020;28;20354;-76
2023/02/13 07:28:44;;;;;;;23.65;18.20;;;3.30;1.00;;;;;;4993005;28;20205;-76
2023/02/13 07:31:12;;;;;;;22.17;18.38;;;3.40;1.00;;;;;;4995560;28;20216;-76
2023/02/13 07:33:41;;;;;;;20.30;17.70;;;3.50;1.00;;;;;;4993242;28;20634;-77
2023/02/13 07:36:10;;;;;;;21.25;18.13;;;3.50;1.00;;;;;;4995579;28;20620;-78
2023/02/13 07:38:38;;;;;;;24.27;19.63;;;3.50;1.00;;;;;;4995453;28;20217;-75
2023/02/13 07:41:06;;;;;;;23.02;18.65;;;3.50;1.00;;;;;;5000037;28;20500;-76
2023/02/13 07:43:34;;;;;;;19.27;15.68;;;3.60;99.90;;;;;;4998111;28;20613;-77
2023/02/13 07:46:03;;;;;;;19.95;16.23;;;3.80;99.90;;;;;;5014181;28;20568;-77
2023/02/13 07:48:31;;;;;;;21.08;16.83;;;4.00;99.90;;;;;;4999874;28;20202;-77
2023/02/13 07:51:02;;;;;;;23.03;18.23;;;4.10;1.00;;;;;;4997850;28;20562;-75
2023/02/13 07:53:31;;;;;;;18.38;15.70;;;4.20;1.00;;;;;;5000966;28;20477;-78
2023/02/13 07:55:59;;;;;;;17.48;15.63;;;4.40;1.00;;;;;;4999761;28;20570;-77
2023/02/13 07:58:27;;;;;;;21.60;19.00;;;4.60;99.90;;;;;;4997980;28;20329;-76
2023/02/13 08:00:56;;;;;;;28.57;20.20;;;4.80;1.00;;;;;;4996272;28;20459;-77
2023/02/13 08:03:24;;;;;;;22.53;20.20;;;5.10;1.00;;;;;;4996657;28;20487;-77
2023/02/13 08:05:53;;;;;;;20.63;18.43;;;5.30;1.00;;;;;;4997304;28;20552;-76
2023/02/13 08:08:23;;;;;;;22.80;17.80;;;5.40;1.00;;;;;;4998094;28;20453;-77
2023/02/13 08:13:37;;;;;;;18.63;16.77;;;5.70;1.00;;;;;;4998106;28;20701;-75
2023/02/13 08:16:05;;;;;;;18.03;16.27;;;5.80;1.00;;;;;;4999658;28;20988;-76
2023/02/13 08:18:34;;;;;;;17.90;16.20;;;6.00;1.00;;;;;;5000628;28;20461;-75
2023/02/13 08:21:02;;;;;;;17.63;15.73;;;6.10;1.00;;;;;;4998991;28;20461;-76
2023/02/13 08:23:31;;;;;;;17.30;15.53;;;6.30;1.00;;;;;;5003178;28;21096;-77
2023/02/13 08:26:01;;;;;;;17.40;15.60;;;6.50;1.00;;;;;;4999813;28;20835;-76
2023/02/13 08:28:29;;;;;;;21.43;15.43;;;6.70;1.00;;;;;;4993325;28;20455;-76
2023/02/13 08:30:58;;;;;;;14.90;13.70;;;6.90;1.00;;;;;;4997281;28;20502;-75
2023/02/13 08:33:26;;;;;;;17.03;15.43;;;7.00;1.00;;;;;;4996554;28;20537;-75
2023/02/13 08:35:54;;;;;;;15.57;14.23;;;7.10;1.00;;;;;;4997103;28;20458;-75
2023/02/13 08:38:23;;;;;;;16.43;14.73;;;7.10;1.00;;;;;;4998939;28;20560;-77
2023/02/13 08:40:53;;;;;;;17.83;16.13;;;7.20;1.00;;;;;;4996564;28;20465;-76
2023/02/13 08:43:21;;;;;;;16.17;14.70;;;7.70;1.00;;;;;;4993096;28;20470;-78
2023/02/13 08:45:50;;;;;;;15.37;14.00;;;8.10;99.90;;;;;;4997788;28;20456;-78
2023/02/13 08:48:18;;;;;;;14.97;13.67;;;8.20;99.90;;;;;;4997819;28;20460;-76
2023/02/13 08:50:46;;;;;;;15.87;14.47;;;8.30;99.90;;;;;;4997340;28;20464;-78
2023/02/13 08:53:14;;;;;;;16.10;14.53;;;8.40;99.90;;;;;;4996740;28;20522;-75
2023/02/13 08:55:42;;;;;;;15.17;14.00;;;8.40;99.90;;;;;;4995398;28;20923;-71
2023/02/13 08:58:12;;;;;;;15.77;14.20;;;9.30;99.90;;;;;;4995235;28;20551;-73
2023/02/13 09:00:40;;;;;;;15.40;13.97;;;9.70;99.90;;;;;;4990732;28;20469;-75
2023/02/13 09:03:08;;;;;;;13.97;12.87;;;9.60;99.90;;;;;;4995792;28;20481;-77
2023/02/13 09:05:37;;;;;;;14.47;13.17;;;9.70;99.90;;;;;;4995580;28;20603;-76
2023/02/13 09:08:06;;;;;;;14.43;13.23;;;9.40;99.90;;;;;;4998676;28;20459;-76
2023/02/13 09:10:35;;;;;;;14.27;13.07;;;9.50;99.90;;;;;;4996600;28;20945;-76
2023/02/13 09:13:03;;;;;;;14.17;12.70;;;9.60;99.90;;;;;;4999226;28;20482;-76
2023/02/13 09:15:33;;;;;;;15.63;13.77;;;9.80;99.90;;;;;;4999010;28;20469;-75
2023/02/13 09:18:01;;;;;;;12.60;11.60;;;10.00;99.90;;;;;;5004398;28;20453;-77
2023/02/13 09:20:29;;;;;;;13.53;12.53;;;10.00;99.90;;;;;;4999903;28;20496;-76
2023/02/13 09:22:58;;;;;;;14.53;13.33;;;10.30;99.90;;;;;;4996671;28;20473;-76
2023/02/13 09:25:26;;;;;;;14.50;13.03;;;10.40;99.90;;;;;;4998592;28;20464;-76
2023/02/13 09:27:54;;;;;;;13.87;12.67;;;10.10;99.90;;;;;;4996362;28;20468;-77
2023/02/13 09:30:23;;;;;;;12.83;11.90;;;10.20;99.90;;;;;;4996808;28;20458;-75
2023/02/13 09:32:53;;;;;;;14.60;13.30;;;10.10;99.90;;;;;;4997176;28;20540;-77
2023/02/13 09:35:22;;;;;;;13.97;12.77;;;10.40;99.90;;;;;;4996274;28;20951;-78
2023/02/13 09:37:50;;;;;;;13.87;12.77;;;11.50;99.90;;;;;;4995457;28;20462;-77
2023/02/13 09:40:25;;;;;;;13.17;12.17;;;12.50;99.90;;;;;;4997853;28;20925;-76
2023/02/13 09:42:55;;;;;;;12.50;11.60;;;13.10;99.90;;;;;;4997396;28;20564;-76
2023/02/13 09:45:23;;;;;;;12.23;11.33;;;13.50;99.90;;;;;;4999687;28;20483;-76
2023/02/13 09:47:53;;;;;;;13.20;12.10;;;13.70;99.90;;;;;;4997492;28;20518;-76
2023/02/13 09:50:24;;;;;;;13.23;12.23;;;13.80;99.90;;;;;;4998089;28;21014;-77
2023/02/13 09:52:55;;;;;;;12.60;11.63;;;14.10;99.90;;;;;;4996006;28;20490;-77
2023/02/13 09:55:28;;;;;;;12.10;11.10;;;14.20;99.90;;;;;;4997873;28;20471;-76
2023/02/13 09:58:02;;;;;;;12.63;11.73;;;13.80;99.90;;;;;;4998530;28;21113;-75
2023/02/13 10:00:35;;;;;;;12.93;12.13;;;14.00;99.90;;;;;;4997942;28;21103;-78
2023/02/13 10:03:23;;;;;;;12.57;11.67;;;14.20;99.90;;;;;;4994729;28;21189;-76
2023/02/13 10:06:06;;;;;;;12.33;11.43;;;14.30;99.90;;;;;;4995473;28;20473;-77
2023/02/13 10:08:55;;;;;;;11.43;10.67;;;14.50;99.90;;;;;;4995674;28;20470;-79
2023/02/13 10:11:42;;;;;;;11.07;10.27;;;14.70;99.90;;;;;;4994992;28;20540;-76
2023/02/13 10:14:17;;;;;;;13.10;12.10;;;15.00;99.90;;;;;;4994805;28;20989;-77
2023/02/13 10:16:49;;;;;;;12.10;11.20;;;15.60;99.90;;;;;;4997353;28;20453;-76
2023/02/13 10:19:32;;;;;;;12.00;11.20;;;15.90;99.90;;;;;;4992671;28;21160;-75
2023/02/13 10:22:06;;;;;;;12.67;11.40;;;16.50;99.90;;;;;;4998740;28;20560;-78
2023/02/13 10:24:39;;;;;;;12.40;11.60;;;17.00;99.90;;;;;;4995748;28;20471;-77
2023/02/13 10:27:20;;;;;;;12.33;11.47;;;17.30;99.90;;;;;;4996916;28;20475;-77
2023/02/13 10:30:11;;;;;;;11.77;10.97;;;18.00;99.90;;;;;;4992352;28;20515;-76
2023/02/13 10:32:49;;;;;;;12.20;11.40;;;18.70;99.90;;;;;;4997368;28;20569;-79
2023/02/13 10:35:23;;;;;;;12.30;11.40;;;18.60;99.90;;;;;;4999742;28;20462;-76
2023/02/13 10:37:56;;;;;;;12.40;11.53;;;19.10;99.90;;;;;;4996573;28;20818;-77
2023/02/13 10:40:31;;;;;;;12.37;11.37;;;20.20;99.90;;;;;;4997034;28;20469;-76
2023/02/13 10:43:07;;;;;;;11.37;10.50;;;21.10;99.90;;;;;;4997453;28;20496;-75
2023/02/13 10:46:13;;;;;;;12.43;11.63;;;21.60;99.90;;;;;;4994809;28;20484;-78
2023/02/13 10:48:53;;;;;;;12.90;12.10;;;22.20;99.90;;;;;;4933722;29;20475;-77
2023/02/13 10:51:30;;;;;;;12.67;11.87;;;23.00;99.90;;;;;;4990254;28;20472;-77
2023/02/13 10:54:24;;;;;;;13.77;12.77;;;23.00;99.90;;;;;;4994261;28;20500;-76
2023/02/13 10:56:59;;;;;;;13.53;12.73;;;23.60;99.90;;;;;;5000057;28;20468;-76
2023/02/13 10:59:39;;;;;;;15.30;14.30;;;23.30;99.90;;;;;;4997725;28;21218;-77
2023/02/13 11:02:22;;;;;;;14.30;13.40;;;23.90;99.90;;;;;;4995813;28;20476;-78
2023/02/13 11:04:57;;;;;;;15.50;14.50;;;24.40;99.90;;;;;;5000532;28;20500;-79
2023/02/13 11:07:28;;;;;;;15.07;14.07;;;24.20;99.90;;;;;;4999261;28;20519;-77
2023/02/13 11:10:03;;;;;;;13.47;12.70;;;22.40;99.90;;;;;;4997856;28;20445;-77
2023/02/13 11:12:32;;;;;;;14.60;13.80;;;21.00;99.90;;;;;;4995119;28;20551;-76
2023/02/13 11:15:02;;;;;;;14.53;13.73;;;20.60;99.90;;;;;;5001503;28;20489;-79
2023/02/13 11:17:34;;;;;;;14.20;13.30;;;20.40;99.90;;;;;;4999808;28;20461;-78
2023/02/13 11:20:06;;;;;;;15.40;14.50;;;21.10;99.90;;;;;;4998659;28;20461;-78
2023/02/13 11:22:41;;;;;;;15.30;14.10;;;22.30;99.90;;;;;;5001928;28;20484;-77
2023/02/13 11:25:19;;;;;;;14.10;13.30;;;23.00;99.90;;;;;;4995386;28;20995;-77
2023/02/13 11:27:49;;;;;;;14.43;13.50;;;23.30;99.90;;;;;;4994975;28;20474;-77
2023/02/13 11:30:31;;;;;;;12.17;11.47;;;24.00;99.90;;;;;;4997571;28;20460;-77
2023/02/13 11:33:01;;;;;;;15.07;14.07;;;24.50;99.90;;;;;;4995452;28;20507;-77
2023/02/13 11:35:31;;;;;;;12.60;11.80;;;25.40;99.90;;;;;;4999916;28;20516;-77
2023/02/13 11:38:22;;;;;;;13.03;12.23;;;25.00;99.90;;;;;;4998580;28;20445;-78
2023/02/13 11:40:53;;;;;;;12.97;12.30;;;24.20;99.90;;;;;;4997656;28;20556;-77
2023/02/13 11:43:28;;;;;;;14.33;13.33;;;21.60;99.90;;;;;;4996185;28;20487;-78
2023/02/13 11:46:05;;;;;;;13.87;13.07;;;19.50;99.90;;;;;;4997033;28;20468;-77
2023/02/13 11:48:33;;;;;;;13.90;13.10;;;17.90;99.90;;;;;;4994165;28;20445;-78
2023/02/13 11:51:02;;;;;;;13.97;13.00;;;16.80;99.90;;;;;;4995169;28;20509;-79
2023/02/13 11:53:37;;;;;;;14.03;13.03;;;16.00;95.90;;;;;;4994436;28;20492;-78
2023/02/13 11:56:10;;;;;;;12.10;11.40;;;15.60;95.00;;;;;;4992534;28;20460;-79
2023/02/13 11:58:39;;;;;;;12.10;11.40;;;15.30;93.70;;;;;;4994534;28;20543;-76
2023/02/13 12:01:27;;;;;;;11.80;11.10;;;14.90;91.70;;;;;;4997244;28;20464;-76
2023/02/13 12:04:03;;;;;;;12.63;11.83;;;14.70;91.00;;;;;;4995423;28;20592;-76
2023/02/13 12:06:38;;;;;;;11.23;10.63;;;14.40;90.00;;;;;;4996772;28;20479;-80
2023/02/13 12:09:15;;;;;;;11.27;10.67;;;14.30;90.00;;;;;;4993470;28;20449;-77
2023/02/13 12:11:47;;;;;;;11.60;10.93;;;14.50;92.70;;;;;;4997909;28;20456;-76
2023/02/13 12:14:19;;;;;;;12.20;11.40;;;14.50;92.50;;;;;;4997573;28;20550;-75
2023/02/13 12:16:51;;;;;;;11.43;10.73;;;14.30;91.80;;;;;;4995861;28;20796;-76
2023/02/13 12:19:23;;;;;;;11.07;10.47;;;14.40;92.90;;;;;;4995360;28;20518;-76
2023/02/13 12:22:14;;;;;;;11.17;10.57;;;14.40;94.40;;;;;;4995686;28;20456;-78
2023/02/13 12:25:17;;;;;;;12.50;11.70;;;14.60;97.20;;;;;;4994734;28;20446;-76
2023/02/13 12:27:55;;;;;;;11.80;11.10;;;14.60;97.40;;;;;;4978565;28;20468;-76
2023/02/13 12:30:51;;;;;;;11.30;10.70;;;14.70;97.90;;;;;;4994815;28;21192;-77
2023/02/13 12:33:32;;;;;;;11.40;10.70;;;14.40;94.60;;;;;;4997907;28;20493;-77
2023/02/13 12:36:06;;;;;;;11.50;10.90;;;14.30;94.70;;;;;;4995507;28;20454;-76
2023/02/13 12:38:49;;;;;;;12.27;11.57;;;14.00;92.10;;;;;;4999035;28;20452;-78
2023/02/13 12:41:22;;;;;;;11.50;10.90;;;13.60;90.10;;;;;;4995474;28;20465;-76
2023/02/13 12:44:16;;;;;;;12.67;11.87;;;13.60;91.80;;;;;;4998930;28;20475;-76
2023/02/13 12:46:54;;;;;;;11.90;11.30;;;13.90;94.60;;;;;;4990416;28;21087;-75
2023/02/13 12:49:52;;;;;;;12.00;11.40;;;14.00;96.20;;;;;;4995013;28;20491;-76
2023/02/13 12:52:33;;;;;;;12.10;11.27;;;14.20;97.90;;;;;;4994336;28;20491;-77
2023/02/13 12:55:17;;;;;;;11.00;10.50;;;14.20;97.90;;;;;;4993701;28;20526;-76
2023/02/13 12:57:59;;;;;;;11.80;11.20;;;14.00;94.60;;;;;;4997495;28;20520;-76
2023/02/13 13:00:38;;;;;;;12.13;11.43;;;13.90;95.50;;;;;;4998599;28;20484;-77
2023/02/13 13:03:25;;;;;;;11.87;11.03;;;14.10;97.80;;;;;;5000942;28;20504;-78
2023/02/13 13:06:10;;;;;;;13.40;12.67;;;13.90;95.60;;;;;;4984642;28;20463;-76
2023/02/13 13:09:04;;;;;;;11.20;10.53;;;13.70;93.50;;;;;;5003563;28;20484;-78
2023/02/13 13:12:13;;;;;;;11.73;11.13;;;13.70;99.90;;;;;;4998872;28;20460;-76
2023/02/13 13:14:49;;;;;;;11.30;10.70;;;13.80;93.90;;;;;;5000682;28;20512;-79
2023/02/13 13:17:34;;;;;;;10.67;10.27;;;13.70;93.00;;;;;;4999123;28;20470;-78
2023/02/13 13:20:22;;;;;;;10.30;9.80;;;13.70;93.80;;;;;;4996773;28;20468;-76
2023/02/13 13:22:55;;;;;;;11.97;11.27;;;13.70;94.00;;;;;;4994855;28;20572;-78
2023/02/13 13:25:30;;;;;;;11.57;10.97;;;13.90;97.70;;;;;;4998677;28;20872;-76
2023/02/13 13:28:02;;;;;;;10.93;10.33;;;13.80;94.70;;;;;;4995100;28;20550;-77
2023/02/13 13:30:34;;;;;;;11.07;10.57;;;13.80;94.90;;;;;;4995556;28;20480;-80
2023/02/13 13:33:07;;;;;;;11.23;10.73;;;13.70;94.50;;;;;;4996611;28;21058;-75
2023/02/13 13:35:38;;;;;;;10.77;10.27;;;13.80;97.60;;;;;;4990209;28;21302;-77
2023/02/13 13:38:12;;;;;;;11.13;10.63;;;13.90;96.90;;;;;;4992978;28;20485;-77
2023/02/13 13:40:45;;;;;;;12.63;11.97;;;13.80;96.90;;;;;;4994889;28;20488;-81
2023/02/13 13:43:24;;;;;;;12.37;11.50;;;13.80;97.60;;;;;;4993570;28;20512;-77
2023/02/13 13:46:05;;;;;;;12.00;11.40;;;13.70;96.80;;;;;;4993927;28;20457;-77
2023/02/13 13:48:52;;;;;;;13.57;12.67;;;13.70;97.40;;;;;;4993106;28;20460;-76